KMLU/MLU METAR and TAF weather

Enter ICAO airport designator
Station Type Date Time Source
KMLU METAR 2020/01/23 14:53 UTC NOAA

KMLU 231453Z 34005KT 10SM -RA BR OVC010 06/04 A3001 RMK AO2 RAB16 SLP161 P0001 60003 T00610044 53006


Station Type Date Time Source
KMLU Decoded METAR 2020/01/23 14:53 UTC NOAA

MONROE REGIONAL AIRPORT, LA, United States (KMLU) 32-31N 092-02W 29M
Jan 23, 2020 - 09:53 AM EST / 2020.01.23 1453 UTC
Wind: from the NNW (340 degrees) at 6 MPH (5 KT):0
Visibility: 10 mile(s):0
Sky conditions: overcast
Weather: light rain; mist
Precipitation last hour: 0.01 inches
Temperature: 43.0 F (6.1 C)
Dew Point: 39.9 F (4.4 C)
Relative Humidity: 88%
Pressure (altimeter): 30.01 in. Hg (1016 hPa)
Pressure tendency: 0.02 inches (0.6 hPa) higher than three hours ago
ob: KMLU 231453Z 34005KT 10SM -RA BR OVC010 06/04 A3001 RMK AO2 RAB16 SLP161 P0001 60003 T00610044 53006
cycle: 15

Station Type Date Time Source
KMLU TAF 2020/01/23 14:27 UTC NOAA

TAF
AMD KMLU 231425Z 2314/2412 12006KT 6SM -RA BR OVC010
TEMPO 2314/2318 4SM BR OVC007
FM231900 15007KT 1 1/2SM BR OVC004
FM232200 33005KT 4SM BR OVC007
FM240400 29005KT P6SM OVC015
FM240800 27004KT P6SM SCT250

Example: see airport list